Time;durP1;ratioP1;P1;durP2;ratioP2;P2;SDS_P1;SDS_P2;PMS_P1;PMS_P2;Temp;Humidity;BMP_temperature;BMP_pressure;BME280_temperature;BME280_humidity;BME280_pressure;Samples;Min_cycle;Max_cycle;Signal;HPM_P1;HPM_P2
2020/12/15 00:01:58;;;;;;;56.10;27.25;;;;;;;;;;5094481;28;20368;-70
2020/12/15 00:04:26;;;;;;;49.35;24.58;;;;;;;;;;5094439;28;20091;-70
2020/12/15 00:06:52;;;;;;;50.97;24.85;;;;;;;;;;5094655;28;20349;-70
2020/12/15 00:09:18;;;;;;;60.10;31.85;;;;;;;;;;5094353;28;20012;-70
2020/12/15 00:11:44;;;;;;;74.75;39.53;;;;;;;;;;5094018;28;20452;-69
2020/12/15 00:14:11;;;;;;;78.55;38.75;;;;;;;;;;5094554;28;20092;-70
2020/12/15 00:16:37;;;;;;;58.60;28.80;;;;;;;;;;5094355;28;20039;-71
2020/12/15 00:19:03;;;;;;;83.30;37.45;;;;;;;;;;5094203;28;20449;-71
2020/12/15 00:21:29;;;;;;;74.35;41.05;;;;;;;;;;5093137;28;20016;-70
2020/12/15 00:23:56;;;;;;;58.15;29.38;;;;;;;;;;5094744;28;20345;-70
2020/12/15 00:26:23;;;;;;;58.85;25.58;;;;;;;;;;5093768;28;20473;-71
2020/12/15 00:28:49;;;;;;;124.63;62.38;;;;;;;;;;5093611;28;20064;-70
2020/12/15 00:31:16;;;;;;;58.08;27.98;;;;;;;;;;5092826;28;20475;-70
2020/12/15 00:33:42;;;;;;;50.42;24.75;;;;;;;;;;5092802;28;20372;-70
2020/12/15 00:36:08;;;;;;;52.92;25.38;;;;;;;;;;5094295;28;20020;-71
2020/12/15 00:38:35;;;;;;;69.85;38.40;;;;;;;;;;5093208;28;20603;-71
2020/12/15 00:41:01;;;;;;;92.57;45.25;;;;;;;;;;5093816;28;20020;-70
2020/12/15 00:43:27;;;;;;;85.07;46.40;;;;;;;;;;5093815;28;20356;-72
2020/12/15 00:45:53;;;;;;;63.33;31.90;;;;;;;;;;5094381;28;20035;-73
2020/12/15 00:48:19;;;;;;;59.13;28.25;;;;;;;;;;5092755;28;20020;-73
2020/12/15 00:50:45;;;;;;;58.70;29.52;;;;;;;;;;5092528;28;20099;-73
2020/12/15 00:53:12;;;;;;;48.28;23.70;;;;;;;;;;5092740;28;20456;-73
2020/12/15 00:55:38;;;;;;;54.72;25.20;;;;;;;;;;5093952;28;20027;-73
2020/12/15 00:58:04;;;;;;;50.38;25.52;;;;;;;;;;5093962;28;20012;-72
2020/12/15 01:00:30;;;;;;;54.50;25.27;;;;;;;;;;5093951;28;20119;-73
2020/12/15 01:02:56;;;;;;;57.42;26.23;;;;;;;;;;5092680;28;20085;-73
2020/12/15 01:05:24;;;;;;;74.88;34.22;;;;;;;;;;5092576;28;20020;-73
2020/12/15 01:07:50;;;;;;;57.08;28.23;;;;;;;;;;5095914;28;20473;-73
2020/12/15 01:10:16;;;;;;;54.25;25.85;;;;;;;;;;5098119;28;20099;-72
2020/12/15 01:12:42;;;;;;;58.25;24.85;;;;;;;;;;5097602;28;20012;-73
2020/12/15 01:15:08;;;;;;;45.55;21.92;;;;;;;;;;5096051;28;20038;-70
2020/12/15 01:17:34;;;;;;;53.10;23.35;;;;;;;;;;5098241;28;20020;-70
2020/12/15 01:20:00;;;;;;;45.72;21.58;;;;;;;;;;5096622;28;20444;-70
2020/12/15 01:22:26;;;;;;;46.05;22.08;;;;;;;;;;5096132;28;20047;-70
2020/12/15 01:24:52;;;;;;;39.88;20.15;;;;;;;;;;5097639;28;20082;-70
2020/12/15 01:27:18;;;;;;;42.25;20.17;;;;;;;;;;5097757;28;20514;-70
2020/12/15 01:29:44;;;;;;;43.72;21.40;;;;;;;;;;5097172;28;20020;-70
2020/12/15 01:32:11;;;;;;;44.10;19.83;;;;;;;;;;5096629;28;20337;-70
2020/12/15 01:34:37;;;;;;;44.88;21.30;;;;;;;;;;5097243;28;20020;-70
2020/12/15 01:37:04;;;;;;;50.85;24.58;;;;;;;;;;5097602;28;20023;-70
2020/12/15 01:39:30;;;;;;;43.38;19.45;;;;;;;;;;5096019;28;20020;-70
2020/12/15 01:41:56;;;;;;;36.63;19.77;;;;;;;;;;5097679;28;20023;-70
2020/12/15 01:44:22;;;;;;;42.13;21.60;;;;;;;;;;5097563;28;20016;-69
2020/12/15 01:46:48;;;;;;;45.05;19.65;;;;;;;;;;5096107;28;20023;-69
2020/12/15 01:49:15;;;;;;;44.05;21.25;;;;;;;;;;5097026;28;20445;-69
2020/12/15 01:51:41;;;;;;;46.83;21.52;;;;;;;;;;5095716;28;20012;-69
2020/12/15 01:54:07;;;;;;;46.13;20.88;;;;;;;;;;5096979;28;20016;-69
2020/12/15 01:56:34;;;;;;;44.50;21.13;;;;;;;;;;5095560;28;20020;-69
2020/12/15 01:59:03;;;;;;;44.95;19.58;;;;;;;;;;5097428;28;20066;-69
2020/12/15 02:01:29;;;;;;;37.85;18.13;;;;;;;;;;5096870;28;20020;-69
2020/12/15 02:03:55;;;;;;;39.97;18.42;;;;;;;;;;5097774;28;20449;-69
2020/12/15 02:06:22;;;;;;;38.25;18.48;;;;;;;;;;5097055;28;20032;-70
2020/12/15 02:08:49;;;;;;;40.80;19.67;;;;;;;;;;5097648;28;20483;-69
2020/12/15 02:11:15;;;;;;;47.15;21.27;;;;;;;;;;5095484;28;20024;-70
2020/12/15 02:13:41;;;;;;;46.80;20.80;;;;;;;;;;5096698;28;20427;-69
2020/12/15 02:16:11;;;;;;;42.75;20.70;;;;;;;;;;5095590;28;20086;-69
2020/12/15 02:18:38;;;;;;;52.10;21.35;;;;;;;;;;5096727;28;20330;-69
2020/12/15 02:21:05;;;;;;;52.08;20.65;;;;;;;;;;5095819;28;20103;-72
2020/12/15 02:23:31;;;;;;;42.72;19.40;;;;;;;;;;5095374;28;20368;-72
2020/12/15 02:25:57;;;;;;;51.00;23.00;;;;;;;;;;5096587;28;20027;-71
2020/12/15 02:28:23;;;;;;;58.92;23.23;;;;;;;;;;5095368;28;20019;-71
2020/12/15 02:30:49;;;;;;;60.22;24.92;;;;;;;;;;5096573;28;20064;-72
2020/12/15 02:33:15;;;;;;;54.10;23.95;;;;;;;;;;5096167;28;20027;-72
2020/12/15 02:35:42;;;;;;;52.45;22.85;;;;;;;;;;5096125;28;20085;-72
2020/12/15 02:38:08;;;;;;;63.92;23.85;;;;;;;;;;5095892;28;20429;-72
2020/12/15 02:40:34;;;;;;;54.60;24.63;;;;;;;;;;5095542;28;20357;-71
2020/12/15 02:43:00;;;;;;;55.08;23.17;;;;;;;;;;5094747;28;20020;-72
2020/12/15 02:45:26;;;;;;;64.15;27.80;;;;;;;;;;5095768;28;20023;-70
2020/12/15 02:47:52;;;;;;;59.72;24.27;;;;;;;;;;5094707;28;20027;-71
2020/12/15 02:50:21;;;;;;;55.35;22.90;;;;;;;;;;5096457;28;20506;-70
2020/12/15 02:52:48;;;;;;;54.15;22.02;;;;;;;;;;5095851;28;20391;-70
2020/12/15 02:55:14;;;;;;;56.92;22.80;;;;;;;;;;5094563;28;20024;-71
2020/12/15 02:57:40;;;;;;;59.33;22.27;;;;;;;;;;5094783;28;20357;-70
2020/12/15 03:00:09;;;;;;;54.22;22.52;;;;;;;;;;5095973;28;20400;-72
2020/12/15 03:02:35;;;;;;;61.33;23.33;;;;;;;;;;5094672;28;20031;-72
2020/12/15 03:05:01;;;;;;;59.67;24.00;;;;;;;;;;5094628;28;20028;-73
2020/12/15 03:07:27;;;;;;;54.35;22.73;;;;;;;;;;5095266;28;20031;-71
2020/12/15 03:09:54;;;;;;;52.33;21.65;;;;;;;;;;5094581;28;20065;-71
2020/12/15 03:12:20;;;;;;;52.25;22.35;;;;;;;;;;5094016;28;20037;-71
2020/12/15 03:14:47;;;;;;;46.85;22.00;;;;;;;;;;5095676;28;20115;-71
2020/12/15 03:17:13;;;;;;;50.05;22.15;;;;;;;;;;5094112;28;20154;-71
2020/12/15 03:19:40;;;;;;;50.67;22.35;;;;;;;;;;5094062;28;20470;-71
2020/12/15 03:22:06;;;;;;;47.25;20.92;;;;;;;;;;5095413;28;20043;-71
2020/12/15 03:24:32;;;;;;;52.45;22.20;;;;;;;;;;5094469;28;20020;-71
2020/12/15 03:26:58;;;;;;;57.13;23.55;;;;;;;;;;5095165;28;20069;-71
2020/12/15 03:29:24;;;;;;;56.53;25.75;;;;;;;;;;5095001;28;20051;-71
2020/12/15 03:31:50;;;;;;;52.35;21.67;;;;;;;;;;5095100;28;20073;-71
2020/12/15 03:34:16;;;;;;;52.42;21.92;;;;;;;;;;5093746;28;20028;-71
2020/12/15 03:36:43;;;;;;;56.83;22.85;;;;;;;;;;5094619;28;20028;-71
2020/12/15 03:39:09;;;;;;;54.85;22.55;;;;;;;;;;5093962;28;20110;-71
2020/12/15 03:41:35;;;;;;;42.58;20.17;;;;;;;;;;5094892;28;20012;-71
2020/12/15 03:44:01;;;;;;;56.92;22.52;;;;;;;;;;5093570;28;20069;-72
2020/12/15 03:46:27;;;;;;;53.60;21.75;;;;;;;;;;5094432;28;20027;-71
2020/12/15 03:48:53;;;;;;;54.30;23.85;;;;;;;;;;5093502;28;20410;-71
2020/12/15 03:51:19;;;;;;;55.65;25.85;;;;;;;;;;5094979;28;20103;-71
2020/12/15 03:53:46;;;;;;;50.75;20.92;;;;;;;;;;5094741;28;20043;-71
2020/12/15 03:56:12;;;;;;;48.42;21.75;;;;;;;;;;5094270;28;20051;-70
2020/12/15 03:58:38;;;;;;;50.97;22.90;;;;;;;;;;5093572;28;20518;-70
2020/12/15 04:01:05;;;;;;;51.58;23.83;;;;;;;;;;5093585;28;20107;-70
2020/12/15 04:03:31;;;;;;;55.20;23.80;;;;;;;;;;5094194;28;20429;-70
2020/12/15 04:05:58;;;;;;;46.75;21.00;;;;;;;;;;5093995;28;20262;-69
2020/12/15 04:08:27;;;;;;;44.83;19.55;;;;;;;;;;5094414;28;20483;-70
2020/12/15 04:10:53;;;;;;;45.95;21.08;;;;;;;;;;5094041;28;20023;-70
2020/12/15 04:13:20;;;;;;;46.28;20.25;;;;;;;;;;5094650;28;20516;-69
2020/12/15 04:15:46;;;;;;;50.15;20.20;;;;;;;;;;5093960;28;20056;-69
2020/12/15 04:18:12;;;;;;;48.33;21.00;;;;;;;;;;5094586;28;20478;-70
2020/12/15 04:20:39;;;;;;;52.25;21.55;;;;;;;;;;5094486;28;20027;-71
2020/12/15 04:23:05;;;;;;;61.22;29.25;;;;;;;;;;5094108;28;20039;-69
2020/12/15 04:25:31;;;;;;;123.90;63.28;;;;;;;;;;5094428;28;20111;-69
2020/12/15 04:27:57;;;;;;;156.98;84.38;;;;;;;;;;5094581;28;20016;-70
2020/12/15 04:30:23;;;;;;;142.07;75.80;;;;;;;;;;5093957;28;20023;-69
2020/12/15 04:32:49;;;;;;;230.65;118.53;;;;;;;;;;5092821;28;20103;-70
2020/12/15 04:35:15;;;;;;;102.00;49.25;;;;;;;;;;5093983;28;20452;-70
2020/12/15 04:37:42;;;;;;;108.78;54.15;;;;;;;;;;5093236;28;20102;-71
2020/12/15 04:40:08;;;;;;;350.00;219.68;;;;;;;;;;5093944;28;20014;-70
2020/12/15 04:42:35;;;;;;;203.80;115.78;;;;;;;;;;5093698;28;20019;-70
2020/12/15 04:45:02;;;;;;;124.22;58.80;;;;;;;;;;5093014;28;20368;-71
2020/12/15 04:47:35;;;;;;;113.78;62.50;;;;;;;;;;5093384;28;20364;-69
2020/12/15 04:50:08;;;;;;;126.22;73.43;;;;;;;;;;5094234;28;20016;-69
2020/12/15 04:52:53;;;;;;;74.25;37.60;;;;;;;;;;5092411;28;20048;-69
2020/12/15 04:55:23;;;;;;;68.60;30.58;;;;;;;;;;5093667;28;20055;-68
2020/12/15 04:57:50;;;;;;;74.63;31.40;;;;;;;;;;5092411;28;20020;-70
2020/12/15 05:00:17;;;;;;;79.30;34.38;;;;;;;;;;5093665;28;20012;-71
2020/12/15 05:02:44;;;;;;;64.90;30.30;;;;;;;;;;5092410;28;20111;-71
2020/12/15 05:05:10;;;;;;;63.15;27.38;;;;;;;;;;5092601;28;20380;-71
2020/12/15 05:07:40;;;;;;;59.75;22.95;;;;;;;;;;5093334;28;20066;-70
2020/12/15 05:10:07;;;;;;;60.30;27.60;;;;;;;;;;5093355;28;20017;-72
2020/12/15 05:12:33;;;;;;;67.28;24.55;;;;;;;;;;5093260;28;20419;-70
2020/12/15 05:15:00;;;;;;;59.65;20.58;;;;;;;;;;5093755;28;20032;-72
2020/12/15 05:17:32;;;;;;;61.60;26.08;;;;;;;;;;5093879;28;20059;-70
2020/12/15 05:19:59;;;;;;;50.95;23.10;;;;;;;;;;5093537;28;20040;-71
2020/12/15 05:22:25;;;;;;;53.33;22.20;;;;;;;;;;5092326;28;20036;-72
2020/12/15 05:24:51;;;;;;;60.38;22.48;;;;;;;;;;5092451;28;20024;-73
2020/12/15 05:27:29;;;;;;;46.42;19.48;;;;;;;;;;5093793;28;20353;-71
2020/12/15 05:30:16;;;;;;;52.53;21.52;;;;;;;;;;5093510;28;20069;-71
2020/12/15 05:32:51;;;;;;;46.63;17.67;;;;;;;;;;5092092;28;20063;-71
2020/12/15 05:35:27;;;;;;;38.95;17.30;;;;;;;;;;5093249;28;20782;-73
2020/12/15 05:37:54;;;;;;;45.85;19.02;;;;;;;;;;5093198;28;20022;-70
2020/12/15 05:40:20;;;;;;;65.07;24.95;;;;;;;;;;5093293;28;20023;-70
2020/12/15 05:42:54;;;;;;;91.47;51.53;;;;;;;;;;5092297;28;20031;-70
2020/12/15 05:45:21;;;;;;;60.38;36.35;;;;;;;;;;5091755;28;20027;-70
2020/12/15 05:47:48;;;;;;;86.57;56.97;;;;;;;;;;5093214;28;20016;-70
2020/12/15 05:50:21;;;;;;;138.00;94.90;;;;;;;;;;5093510;28;20041;-70
2020/12/15 05:53:00;;;;;;;59.65;34.08;;;;;;;;;;5093941;28;20027;-70
2020/12/15 05:55:27;;;;;;;59.10;28.73;;;;;;;;;;5095099;28;20028;-70
2020/12/15 05:57:53;;;;;;;41.22;20.85;;;;;;;;;;5096950;28;20164;-70
2020/12/15 06:00:20;;;;;;;49.10;23.63;;;;;;;;;;5097193;28;20020;-70
2020/12/15 06:02:57;;;;;;;49.65;20.02;;;;;;;;;;5096566;28;20027;-70
2020/12/15 06:05:24;;;;;;;41.07;18.30;;;;;;;;;;5096729;28;20114;-70
2020/12/15 06:07:52;;;;;;;48.60;19.95;;;;;;;;;;5097561;28;20835;-69
2020/12/15 06:10:20;;;;;;;47.80;23.05;;;;;;;;;;5096421;28;20333;-70
2020/12/15 06:12:48;;;;;;;51.20;26.40;;;;;;;;;;5095792;28;20099;-69
2020/12/15 06:15:14;;;;;;;49.97;24.63;;;;;;;;;;5096642;28;20031;-69
2020/12/15 06:17:41;;;;;;;56.67;29.02;;;;;;;;;;5096608;28;20024;-69
2020/12/15 06:20:09;;;;;;;78.63;38.28;;;;;;;;;;5096867;28;20074;-69
2020/12/15 06:22:35;;;;;;;91.22;44.92;;;;;;;;;;5097079;28;20129;-69
2020/12/15 06:25:01;;;;;;;77.55;40.15;;;;;;;;;;5095245;28;20016;-69
2020/12/15 06:27:34;;;;;;;62.92;30.58;;;;;;;;;;5096447;28;20460;-71
2020/12/15 06:30:01;;;;;;;62.42;29.05;;;;;;;;;;5097060;28;20024;-67
2020/12/15 06:32:27;;;;;;;52.75;25.02;;;;;;;;;;5096109;28;20050;-67
2020/12/15 06:34:54;;;;;;;65.75;35.92;;;;;;;;;;5096536;28;20020;-68
2020/12/15 06:37:20;;;;;;;;;;;;;;;;;;5096373;28;20460;-68
2020/12/15 06:40:04;;;;;;;72.72;40.00;;;;;;;;;;5095127;28;19900;-67
2020/12/15 06:42:30;;;;;;;85.82;56.83;;;;;;;;;;5095804;28;20042;-67
2020/12/15 06:45:07;;;;;;;63.15;29.02;;;;;;;;;;5096640;28;20491;-68
2020/12/15 06:47:37;;;;;;;59.22;35.13;;;;;;;;;;5096002;28;20016;-68
2020/12/15 06:50:14;;;;;;;67.97;43.13;;;;;;;;;;5094190;28;20020;-69
2020/12/15 06:52:40;;;;;;;76.35;38.20;;;;;;;;;;5095083;28;20117;-75
2020/12/15 06:55:06;;;;;;;206.93;123.03;;;;;;;;;;5095425;28;20468;-71
2020/12/15 06:57:36;;;;;;;124.05;55.22;;;;;;;;;;5095757;28;20032;-69
2020/12/15 07:00:12;;;;;;;99.03;45.85;;;;;;;;;;5096291;28;20015;-73
2020/12/15 07:02:39;;;;;;;85.30;39.88;;;;;;;;;;5096424;28;20016;-72
2020/12/15 07:05:19;;;;;;;103.30;50.17;;;;;;;;;;5093675;28;20456;-70
2020/12/15 07:07:49;;;;;;;137.35;60.67;;;;;;;;;;5096026;28;20100;-72
2020/12/15 07:10:16;;;;;;;103.82;47.90;;;;;;;;;;5094433;28;20051;-72
2020/12/15 07:12:43;;;;;;;71.00;33.13;;;;;;;;;;5094412;28;20120;-73
2020/12/15 07:15:11;;;;;;;47.10;20.20;;;;;;;;;;5094261;28;20024;-75
2020/12/15 07:17:38;;;;;;;45.95;19.83;;;;;;;;;;5095740;28;20020;-73
2020/12/15 07:20:04;;;;;;;38.73;18.07;;;;;;;;;;5094385;28;20016;-74
2020/12/15 07:22:30;;;;;;;33.38;16.42;;;;;;;;;;5095537;28;20544;-72
2020/12/15 07:24:56;;;;;;;44.63;18.55;;;;;;;;;;5095375;28;20020;-70
2020/12/15 07:27:23;;;;;;;41.58;17.90;;;;;;;;;;5094441;28;20023;-73
2020/12/15 07:29:53;;;;;;;43.42;17.73;;;;;;;;;;5096463;28;20043;-77
2020/12/15 07:32:19;;;;;;;45.05;19.13;;;;;;;;;;5098986;28;20024;-74
2020/12/15 07:34:46;;;;;;;50.10;23.83;;;;;;;;;;5095810;28;20395;-67
2020/12/15 07:37:18;;;;;;;61.03;30.05;;;;;;;;;;5094977;28;20041;-65
2020/12/15 07:39:45;;;;;;;58.28;28.60;;;;;;;;;;5094858;28;20023;-70
2020/12/15 07:42:11;;;;;;;57.80;27.48;;;;;;;;;;5093393;28;20357;-67
2020/12/15 07:44:37;;;;;;;87.88;40.05;;;;;;;;;;5094733;28;20362;-67
2020/12/15 07:47:03;;;;;;;100.57;42.95;;;;;;;;;;5095133;28;20018;-66
2020/12/15 07:49:30;;;;;;;73.80;32.10;;;;;;;;;;5094658;28;20028;-66
2020/12/15 07:51:56;;;;;;;56.63;23.67;;;;;;;;;;5094517;28;20310;-67
2020/12/15 07:54:22;;;;;;;63.97;29.08;;;;;;;;;;5095043;28;20118;-67
2020/12/15 07:56:49;;;;;;;54.15;21.40;;;;;;;;;;5094616;28;20062;-71
2020/12/15 07:59:16;;;;;;;51.00;22.80;;;;;;;;;;5093629;28;20475;-72
2020/12/15 08:01:42;;;;;;;51.53;21.98;;;;;;;;;;5093605;28;20452;-71
2020/12/15 08:04:12;;;;;;;51.67;23.65;;;;;;;;;;5094538;28;20020;-68
2020/12/15 08:06:39;;;;;;;51.47;21.60;;;;;;;;;;5094786;28;20020;-70
2020/12/15 08:09:09;;;;;;;47.60;19.38;;;;;;;;;;5084048;28;20108;-69
2020/12/15 08:11:36;;;;;;;48.85;20.45;;;;;;;;;;5072796;28;20445;-69
2020/12/15 08:14:03;;;;;;;61.10;26.67;;;;;;;;;;5072607;28;20461;-68
2020/12/15 08:16:29;;;;;;;56.25;24.73;;;;;;;;;;5072634;28;20063;-70
2020/12/15 08:18:59;;;;;;;90.50;45.60;;;;;;;;;;5073619;28;20028;-70
2020/12/15 08:21:28;;;;;;;74.28;37.58;;;;;;;;;;5092119;28;20023;-70
2020/12/15 08:23:55;;;;;;;66.90;30.02;;;;;;;;;;5092815;28;20051;-70
2020/12/15 08:26:22;;;;;;;70.13;30.48;;;;;;;;;;5092484;28;20020;-71
2020/12/15 08:28:49;;;;;;;58.25;25.55;;;;;;;;;;5093849;28;20468;-71
2020/12/15 08:31:15;;;;;;;81.70;34.38;;;;;;;;;;5092697;28;20360;-71
2020/12/15 08:33:41;;;;;;;90.35;41.00;;;;;;;;;;5094271;28;20031;-72
2020/12/15 08:36:11;;;;;;;71.45;32.53;;;;;;;;;;5093365;28;20035;-71
2020/12/15 08:38:42;;;;;;;66.68;32.47;;;;;;;;;;5092911;28;20590;-70
2020/12/15 08:41:12;;;;;;;68.97;29.73;;;;;;;;;;5093012;28;20380;-68
2020/12/15 08:43:38;;;;;;;81.50;33.67;;;;;;;;;;5094121;28;20016;-69
2020/12/15 08:46:13;;;;;;;84.03;35.10;;;;;;;;;;5092378;28;20016;-70
2020/12/15 08:48:39;;;;;;;78.70;31.85;;;;;;;;;;5093505;28;20020;-71
2020/12/15 08:51:24;;;;;;;72.30;29.65;;;;;;;;;;5093981;28;20034;-71
2020/12/15 08:53:50;;;;;;;63.85;28.95;;;;;;;;;;5093056;28;20028;-72
2020/12/15 08:56:16;;;;;;;67.70;30.73;;;;;;;;;;5087736;28;20051;-71
2020/12/15 08:58:43;;;;;;;71.63;28.23;;;;;;;;;;5093555;28;20016;-72
2020/12/15 09:01:09;;;;;;;70.47;32.13;;;;;;;;;;5089099;28;20020;-72
2020/12/15 09:03:46;;;;;;;64.50;25.92;;;;;;;;;;5091755;28;20078;-71
2020/12/15 09:06:12;;;;;;;71.30;32.00;;;;;;;;;;5098619;28;20508;-70
2020/12/15 09:08:49;;;;;;;71.20;33.38;;;;;;;;;;5092136;28;20021;-70
2020/12/15 09:11:16;;;;;;;70.32;28.25;;;;;;;;;;5093520;28;20023;-68
2020/12/15 09:14:17;;;;;;;90.10;41.40;;;;;;;;;;5092678;28;20461;-71
2020/12/15 09:16:43;;;;;;;74.90;37.70;;;;;;;;;;5055349;28;20036;-72
2020/12/15 09:19:21;;;;;;;85.20;39.55;;;;;;;;;;5092245;28;20020;-70
2020/12/15 09:22:00;;;;;;;82.85;38.15;;;;;;;;;;5092209;28;20460;-70
2020/12/15 09:24:27;;;;;;;76.55;36.92;;;;;;;;;;5090728;28;20016;-70
2020/12/15 09:26:53;;;;;;;81.93;39.42;;;;;;;;;;5093615;28;20028;-70
2020/12/15 09:29:20;;;;;;;98.55;43.60;;;;;;;;;;5094683;28;20024;-70
2020/12/15 09:31:53;;;;;;;80.03;39.67;;;;;;;;;;5097651;28;20020;-70
2020/12/15 09:34:19;;;;;;;86.22;44.42;;;;;;;;;;5095536;28;20020;-70
2020/12/15 09:36:56;;;;;;;75.43;35.97;;;;;;;;;;5097436;28;20107;-72
2020/12/15 09:39:23;;;;;;;68.97;34.35;;;;;;;;;;5096327;28;20643;-73
2020/12/15 09:41:49;;;;;;;80.55;38.22;;;;;;;;;;5095563;28;20012;-72
2020/12/15 09:44:15;;;;;;;68.43;34.28;;;;;;;;;;5095992;28;20020;-72
2020/12/15 09:46:41;;;;;;;80.20;31.38;;;;;;;;;;5095581;28;20081;-71
2020/12/15 09:49:07;;;;;;;61.65;26.50;;;;;;;;;;5095038;28;20016;-75
2020/12/15 09:51:34;;;;;;;71.50;32.80;;;;;;;;;;5096093;28;20016;-72
2020/12/15 09:54:00;;;;;;;76.53;34.60;;;;;;;;;;5095729;28;20023;-69
2020/12/15 09:56:27;;;;;;;72.72;32.75;;;;;;;;;;5095185;28;20361;-71
2020/12/15 09:58:53;;;;;;;59.30;25.65;;;;;;;;;;5096464;28;20095;-71
2020/12/15 10:01:19;;;;;;;73.65;33.35;;;;;;;;;;5097268;28;20081;-72
2020/12/15 10:03:45;;;;;;;74.20;29.80;;;;;;;;;;5095440;28;20041;-71
2020/12/15 10:06:15;;;;;;;66.18;27.58;;;;;;;;;;5096977;28;20030;-71
2020/12/15 10:08:41;;;;;;;65.00;27.08;;;;;;;;;;5079479;28;20468;-69
2020/12/15 10:11:07;;;;;;;91.93;37.22;;;;;;;;;;5093587;28;20020;-69
2020/12/15 10:13:33;;;;;;;68.05;32.08;;;;;;;;;;5096450;28;20024;-68
2020/12/15 10:15:59;;;;;;;70.40;33.58;;;;;;;;;;5086698;28;20029;-70
2020/12/15 10:18:25;;;;;;;83.72;32.42;;;;;;;;;;5086173;28;20073;-68
2020/12/15 10:20:52;;;;;;;74.90;29.80;;;;;;;;;;5095869;28;20028;-72
2020/12/15 10:23:18;;;;;;;65.87;27.90;;;;;;;;;;5094609;28;20078;-72
2020/12/15 10:25:44;;;;;;;55.17;20.70;;;;;;;;;;5096378;28;20028;-70
2020/12/15 10:28:12;;;;;;;50.03;21.02;;;;;;;;;;5095738;28;20028;-71
2020/12/15 10:30:38;;;;;;;42.60;15.32;;;;;;;;;;5095050;28;20012;-71
2020/12/15 10:33:04;;;;;;;52.83;18.50;;;;;;;;;;5096130;28;20031;-71
2020/12/15 10:35:30;;;;;;;49.42;22.27;;;;;;;;;;5095852;28;20144;-70
2020/12/15 10:37:56;;;;;;;61.65;27.88;;;;;;;;;;5095389;28;20039;-72
2020/12/15 10:40:22;;;;;;;53.83;21.98;;;;;;;;;;5094909;28;20012;-71
2020/12/15 10:42:48;;;;;;;60.55;24.13;;;;;;;;;;5095247;28;20021;-70
2020/12/15 10:45:15;;;;;;;69.95;30.60;;;;;;;;;;5095955;28;20031;-71
2020/12/15 10:47:43;;;;;;;69.00;30.00;;;;;;;;;;5096228;28;20020;-70
2020/12/15 10:50:10;;;;;;;61.22;26.52;;;;;;;;;;5094791;28;20045;-69
2020/12/15 10:52:36;;;;;;;70.80;31.55;;;;;;;;;;5095415;28;20020;-69
2020/12/15 10:55:03;;;;;;;65.70;29.30;;;;;;;;;;5095964;28;20024;-69
2020/12/15 10:57:29;;;;;;;59.65;29.50;;;;;;;;;;5094755;28;20461;-72
2020/12/15 10:59:55;;;;;;;48.35;24.02;;;;;;;;;;5094359;28;20012;-73
2020/12/15 11:02:21;;;;;;;46.67;20.63;;;;;;;;;;5094463;28;20482;-72
2020/12/15 11:04:48;;;;;;;51.92;24.38;;;;;;;;;;5095623;28;20039;-72
2020/12/15 11:07:14;;;;;;;54.78;23.33;;;;;;;;;;5093529;28;20012;-72
2020/12/15 11:09:40;;;;;;;74.45;32.13;;;;;;;;;;5093105;28;20495;-70
2020/12/15 11:12:07;;;;;;;45.30;21.50;;;;;;;;;;5094908;28;20095;-71
2020/12/15 11:14:34;;;;;;;45.83;25.23;;;;;;;;;;5094174;28;20035;-71
2020/12/15 11:17:00;;;;;;;43.08;19.25;;;;;;;;;;5093966;28;20036;-71
2020/12/15 11:19:26;;;;;;;60.97;27.05;;;;;;;;;;5093157;28;20111;-71
2020/12/15 11:21:52;;;;;;;169.45;57.60;;;;;;;;;;5095576;28;20042;-65
2020/12/15 11:24:18;;;;;;;178.13;64.28;;;;;;;;;;5094624;28;20401;-70
2020/12/15 11:26:44;;;;;;;289.08;97.93;;;;;;;;;;5094739;28;20044;-70
2020/12/15 11:29:11;;;;;;;230.48;94.95;;;;;;;;;;5096245;28;20047;-71
2020/12/15 11:31:37;;;;;;;154.30;68.55;;;;;;;;;;5095607;28;20020;-72
2020/12/15 11:34:03;;;;;;;83.65;37.08;;;;;;;;;;5094623;28;20028;-71
2020/12/15 11:36:29;;;;;;;128.50;72.90;;;;;;;;;;5092634;28;20098;-68
2020/12/15 11:38:55;;;;;;;78.22;41.72;;;;;;;;;;5095024;28;20012;-71
2020/12/15 11:41:26;;;;;;;50.70;33.78;;;;;;;;;;5094199;28;20020;-72
2020/12/15 11:43:53;;;;;;;43.22;20.92;;;;;;;;;;5094799;28;20081;-72
2020/12/15 11:46:19;;;;;;;46.10;23.52;;;;;;;;;;5093779;28;20016;-71
2020/12/15 11:48:45;;;;;;;79.63;33.65;;;;;;;;;;5093419;28;20103;-71
2020/12/15 11:51:11;;;;;;;73.65;33.90;;;;;;;;;;5094161;28;20024;-70
2020/12/15 11:53:37;;;;;;;37.00;19.15;;;;;;;;;;5095187;28;20016;-69
2020/12/15 11:56:03;;;;;;;73.30;36.25;;;;;;;;;;5094447;28;20046;-66
2020/12/15 11:58:29;;;;;;;50.05;29.13;;;;;;;;;;5094289;28;20457;-71
2020/12/15 12:00:57;;;;;;;84.85;47.22;;;;;;;;;;5092894;28;20024;-72
2020/12/15 12:03:23;;;;;;;42.25;23.45;;;;;;;;;;5073984;28;20058;-70
2020/12/15 12:05:50;;;;;;;37.90;19.85;;;;;;;;;;5079127;28;20077;-70
2020/12/15 12:08:16;;;;;;;38.20;19.38;;;;;;;;;;5091993;28;20031;-70
2020/12/15 12:10:42;;;;;;;39.10;21.58;;;;;;;;;;5092619;28;20023;-73
2020/12/15 12:13:08;;;;;;;47.65;27.55;;;;;;;;;;5092733;28;20035;-71
2020/12/15 12:15:34;;;;;;;59.30;31.88;;;;;;;;;;5093650;28;20036;-70
2020/12/15 12:18:00;;;;;;;49.13;24.35;;;;;;;;;;5093451;28;20027;-72
2020/12/15 12:20:29;;;;;;;68.90;37.10;;;;;;;;;;5092920;28;20016;-70
2020/12/15 12:22:56;;;;;;;87.53;41.85;;;;;;;;;;5093647;28;20051;-70
2020/12/15 12:25:22;;;;;;;93.32;47.42;;;;;;;;;;5094088;28;20341;-68
2020/12/15 12:27:48;;;;;;;77.57;38.30;;;;;;;;;;5093043;28;20020;-71
2020/12/15 12:30:14;;;;;;;127.45;64.15;;;;;;;;;;5091362;28;20039;-69
2020/12/15 12:32:40;;;;;;;119.95;56.05;;;;;;;;;;5092569;28;20548;-68
2020/12/15 12:35:06;;;;;;;122.63;56.10;;;;;;;;;;5092772;28;20453;-71
2020/12/15 12:37:33;;;;;;;121.30;57.83;;;;;;;;;;5093691;28;20028;-69
2020/12/15 12:39:59;;;;;;;140.05;61.88;;;;;;;;;;5092609;28;20038;-69
2020/12/15 12:42:25;;;;;;;74.30;35.13;;;;;;;;;;5092572;28;20032;-65
2020/12/15 12:44:51;;;;;;;72.13;33.65;;;;;;;;;;5093404;28;20069;-69
2020/12/15 12:47:17;;;;;;;52.17;28.02;;;;;;;;;;5092614;28;20024;-69
2020/12/15 12:49:44;;;;;;;57.58;33.10;;;;;;;;;;5093631;28;20027;-69
2020/12/15 12:52:10;;;;;;;101.47;54.75;;;;;;;;;;5091946;28;20055;-69
2020/12/15 12:54:36;;;;;;;84.10;47.25;;;;;;;;;;5093333;28;20417;-70
2020/12/15 12:57:02;;;;;;;178.38;98.85;;;;;;;;;;5092290;28;20028;-70
2020/12/15 12:59:28;;;;;;;105.13;60.60;;;;;;;;;;5093000;28;20028;-73
2020/12/15 13:01:54;;;;;;;95.72;53.65;;;;;;;;;;5091806;28;20039;-68
2020/12/15 13:04:20;;;;;;;78.85;44.58;;;;;;;;;;5092633;28;20405;-70
2020/12/15 13:06:48;;;;;;;42.80;25.02;;;;;;;;;;5091769;28;20048;-68
2020/12/15 13:09:15;;;;;;;55.40;33.05;;;;;;;;;;5093821;28;20516;-73
2020/12/15 13:11:41;;;;;;;32.88;18.17;;;;;;;;;;5092131;28;20472;-74
2020/12/15 13:14:07;;;;;;;45.22;22.48;;;;;;;;;;5105640;28;20024;-73
2020/12/15 13:16:36;;;;;;;35.22;20.67;;;;;;;;;;5092111;28;20032;-74
2020/12/15 13:19:05;;;;;;;49.67;30.50;;;;;;;;;;5093594;28;20016;-73
2020/12/15 13:21:31;;;;;;;60.28;39.80;;;;;;;;;;5092362;28;20024;-74
2020/12/15 13:23:57;;;;;;;76.25;45.08;;;;;;;;;;5091880;28;20036;-73
2020/12/15 13:26:23;;;;;;;78.97;47.10;;;;;;;;;;5092742;28;20368;-73
2020/12/15 13:28:50;;;;;;;32.85;20.73;;;;;;;;;;5092322;28;20012;-70
2020/12/15 13:31:17;;;;;;;37.70;22.70;;;;;;;;;;5093396;28;20361;-72
2020/12/15 13:33:44;;;;;;;25.75;16.98;;;;;;;;;;5093763;28;20069;-76
2020/12/15 13:36:10;;;;;;;40.05;26.55;;;;;;;;;;5094705;28;20032;-72
2020/12/15 13:38:37;;;;;;;41.03;25.90;;;;;;;;;;5095180;28;20026;-77
2020/12/15 13:41:03;;;;;;;71.40;44.92;;;;;;;;;;5093139;28;20016;-76
2020/12/15 13:43:30;;;;;;;46.55;26.48;;;;;;;;;;5092470;28;20350;-76
2020/12/15 13:45:56;;;;;;;37.80;21.98;;;;;;;;;;5094203;28;20073;-77
2020/12/15 13:48:22;;;;;;;45.15;23.23;;;;;;;;;;5092757;28;20431;-68
2020/12/15 13:50:48;;;;;;;44.35;24.05;;;;;;;;;;5093331;28;20062;-72
2020/12/15 13:53:14;;;;;;;58.97;28.05;;;;;;;;;;5092074;28;20017;-73
2020/12/15 13:55:42;;;;;;;35.08;20.10;;;;;;;;;;5090927;28;20040;-76
2020/12/15 13:58:08;;;;;;;29.13;16.42;;;;;;;;;;5091256;28;20021;-76
2020/12/15 14:00:39;;;;;;;61.35;34.60;;;;;;;;;;5090172;28;20024;-78
2020/12/15 14:03:07;;;;;;;40.92;25.25;;;;;;;;;;5091058;28;20028;-77
2020/12/15 14:05:33;;;;;;;44.63;29.73;;;;;;;;;;5090734;28;20024;-75
2020/12/15 14:07:59;;;;;;;29.35;17.77;;;;;;;;;;5091224;28;20134;-75
2020/12/15 14:10:25;;;;;;;23.83;16.27;;;;;;;;;;5092023;28;20050;-74
2020/12/15 14:12:52;;;;;;;28.30;15.30;;;;;;;;;;5090213;28;20356;-72
2020/12/15 14:15:18;;;;;;;20.67;14.53;;;;;;;;;;5092437;28;20472;-75
2020/12/15 14:17:44;;;;;;;22.17;12.07;;;;;;;;;;5094745;28;20364;-73